LFBI/PIS METAR and TAF weather

Enter ICAO airport designator
Station Type Date Time Source
LFBI METAR 2019/07/20 05:00 UTC NOAA

LFBI 200500Z AUTO 21002KT CAVOK 16/13 Q1013 TEMPO VRB15G25KT -TSRA SCT060CB


Station Type Date Time Source
LFBI Decoded METAR 2019/07/20 05:00 UTC NOAA

Poitiers, France (LFBI) 46-35N 000-19E 120M
Jul 20, 2019 - 01:00 AM EDT / 2019.07.20 0500 UTC
Wind: from the SSW (210 degrees) at 2 MPH (2 KT):0
Visibility: greater than 7 mile(s):0
Weather: Cumulonimbus clouds observed
Temperature: 60 F (16 C)
Dew Point: 55 F (13 C)
Relative Humidity: 82%
Pressure (altimeter): 29.91 in. Hg (1013 hPa)
ob: LFBI 200500Z AUTO 21002KT CAVOK 16/13 Q1013 TEMPO VRB15G25KT -TSRA SCT060CB
cycle: 5

Station Type Date Time Source
LFBI TAF 2019/07/20 06:21 UTC NOAA

TAF LFBI 200500Z 2006/2106 VRB02KT CAVOK
BECMG 2008/2010 27008KT
BECMG 2020/2022 VRB02KT PROB30
TEMPO 2103/2106 4000 BR

Example: see airport list